createdAt,value
2018-11-09T00:00:15.993Z,1012.02
2018-11-09T00:00:42.199Z,1011.99
2018-11-09T00:01:08.380Z,1011.99
2018-11-09T00:01:34.559Z,1011.95
2018-11-09T00:02:00.738Z,1011.95
2018-11-09T00:02:26.921Z,1011.92
2018-11-09T00:02:53.124Z,1011.9
2018-11-09T00:03:19.309Z,1011.85
2018-11-09T00:03:45.486Z,1011.88
2018-11-09T00:04:11.690Z,1011.91
2018-11-09T00:04:37.876Z,1011.89
2018-11-09T00:05:04.063Z,1011.86
2018-11-09T00:05:30.311Z,1011.87
2018-11-09T00:05:56.485Z,1011.86
2018-11-09T00:06:22.678Z,1011.87
2018-11-09T00:06:48.864Z,1011.83
2018-11-09T00:07:15.044Z,1011.87
2018-11-09T00:07:41.225Z,1011.86
2018-11-09T00:08:07.436Z,1011.83
2018-11-09T00:08:33.629Z,1011.84
2018-11-09T00:08:59.808Z,1011.83
2018-11-09T00:09:26.030Z,1011.84
2018-11-09T00:09:52.217Z,1011.87
2018-11-09T00:10:18.431Z,1011.83
2018-11-09T00:10:44.614Z,1011.82
2018-11-09T00:11:10.793Z,1011.82
2018-11-09T00:11:36.976Z,1011.84
2018-11-09T00:12:03.156Z,1011.81
2018-11-09T00:12:29.337Z,1011.82
2018-11-09T00:12:55.550Z,1011.82
2018-11-09T00:13:21.733Z,1011.85
2018-11-09T00:13:47.920Z,1011.81
2018-11-09T00:14:14.179Z,1011.84
2018-11-09T00:14:40.278Z,1011.84
2018-11-09T00:15:06.459Z,1011.83
2018-11-09T00:15:32.676Z,1011.83
2018-11-09T00:15:58.889Z,1011.84
2018-11-09T00:16:25.153Z,1011.85
2018-11-09T00:16:51.309Z,1011.84
2018-11-09T00:17:17.517Z,1011.85
2018-11-09T00:17:43.697Z,1011.84
2018-11-09T00:18:09.881Z,1011.84
2018-11-09T00:18:36.062Z,1011.81
2018-11-09T00:19:02.277Z,1011.85
2018-11-09T00:19:28.493Z,1011.81
2018-11-09T00:19:54.670Z,1011.82
2018-11-09T00:20:20.852Z,1011.84
2018-11-09T00:20:47.068Z,1011.81
2018-11-09T00:21:13.250Z,1011.81
2018-11-09T00:21:39.429Z,1011.83
2018-11-09T00:22:05.609Z,1011.81
2018-11-09T00:22:31.803Z,1011.8
2018-11-09T00:22:58.006Z,1011.8
2018-11-09T00:23:24.223Z,1011.77
2018-11-09T00:23:50.503Z,1011.76
2018-11-09T00:24:16.682Z,1011.74
2018-11-09T00:24:42.863Z,1011.74
2018-11-09T00:25:09.054Z,1011.72
2018-11-09T00:25:35.266Z,1011.72
2018-11-09T00:26:01.453Z,1011.77
2018-11-09T00:26:27.712Z,1011.77
2018-11-09T00:26:53.871Z,1011.76
2018-11-09T00:27:20.047Z,1011.73
2018-11-09T00:27:46.249Z,1011.72
2018-11-09T00:28:12.464Z,1011.72
2018-11-09T00:28:38.651Z,1011.74
2018-11-09T00:29:04.861Z,1011.73
2018-11-09T00:29:31.045Z,1011.73
2018-11-09T00:29:57.227Z,1011.71
2018-11-09T00:30:23.440Z,1011.71
2018-11-09T00:30:49.589Z,1011.68
2018-11-09T00:31:15.776Z,1011.69
2018-11-09T00:31:41.955Z,1011.64
2018-11-09T00:32:08.144Z,1011.67
2018-11-09T00:32:34.316Z,1011.65
2018-11-09T00:33:00.502Z,1011.67
2018-11-09T00:33:26.713Z,1011.65
2018-11-09T00:33:52.921Z,1011.69
2018-11-09T00:34:19.110Z,1011.67
2018-11-09T00:34:45.377Z,1011.67
2018-11-09T00:35:11.502Z,1011.67
2018-11-09T00:35:37.677Z,1011.66
2018-11-09T00:36:03.859Z,1011.65
2018-11-09T00:36:30.047Z,1011.67
2018-11-09T00:36:56.226Z,1011.66
2018-11-09T00:37:22.412Z,1011.64
2018-11-09T00:37:48.630Z,1011.64
2018-11-09T00:38:14.881Z,1011.67
2018-11-09T00:38:41.057Z,1011.69
2018-11-09T00:39:07.273Z,1011.68
2018-11-09T00:39:33.461Z,1011.62
2018-11-09T00:39:59.671Z,1011.63
2018-11-09T00:40:25.883Z,1011.64
2018-11-09T00:40:52.089Z,1011.62
2018-11-09T00:41:18.272Z,1011.57
2018-11-09T00:41:44.471Z,1011.61
2018-11-09T00:42:10.671Z,1011.59
2018-11-09T00:42:36.850Z,1011.57
2018-11-09T00:43:03.031Z,1011.56
2018-11-09T00:43:29.209Z,1011.57
2018-11-09T00:43:55.392Z,1011.55
2018-11-09T00:44:21.578Z,1011.55
2018-11-09T00:44:47.793Z,1011.55
2018-11-09T00:45:13.974Z,1011.52
2018-11-09T00:45:40.163Z,1011.51
2018-11-09T00:46:06.340Z,1011.54
2018-11-09T00:46:32.519Z,1011.54
2018-11-09T00:46:58.704Z,1011.5
2018-11-09T00:47:24.909Z,1011.5
2018-11-09T00:47:51.084Z,1011.48
2018-11-09T00:48:17.300Z,1011.5
2018-11-09T00:48:43.486Z,1011.47
2018-11-09T00:49:09.690Z,1011.47
2018-11-09T00:49:35.998Z,1011.48
2018-11-09T00:50:02.236Z,1011.49
2018-11-09T00:50:28.482Z,1011.47
2018-11-09T00:50:54.636Z,1011.48
2018-11-09T00:51:20.813Z,1011.45
2018-11-09T00:51:47.004Z,1011.46
2018-11-09T00:52:13.189Z,1011.42
2018-11-09T00:52:39.402Z,1011.48
2018-11-09T00:53:05.621Z,1011.45
2018-11-09T00:53:31.871Z,1011.43
2018-11-09T00:53:58.053Z,1011.47
2018-11-09T00:54:24.236Z,1011.44
2018-11-09T00:54:50.446Z,1011.42
2018-11-09T00:55:16.648Z,1011.4
2018-11-09T00:55:42.816Z,1011.42
2018-11-09T00:56:09.085Z,1011.41
2018-11-09T00:56:35.259Z,1011.39
2018-11-09T00:57:01.438Z,1011.4
2018-11-09T00:57:27.648Z,1011.41
2018-11-09T00:57:54.129Z,1011.36
2018-11-09T00:58:20.991Z,1011.35
2018-11-09T00:58:47.189Z,1011.35
2018-11-09T00:59:13.491Z,1011.3
2018-11-09T00:59:39.672Z,1011.32
2018-11-09T01:00:05.850Z,1011.32
2018-11-09T01:00:32.032Z,1011.32
2018-11-09T01:00:58.211Z,1011.32
2018-11-09T01:01:24.394Z,1011.33
2018-11-09T01:01:50.614Z,1011.34
2018-11-09T01:02:16.792Z,1011.33
2018-11-09T01:02:42.970Z,1011.3
2018-11-09T01:03:09.214Z,1011.28
2018-11-09T01:03:35.827Z,1011.32
2018-11-09T01:04:01.779Z,1011.28
2018-11-09T01:04:27.962Z,1011.32
2018-11-09T01:04:54.145Z,1011.26
2018-11-09T01:05:20.323Z,1011.27
2018-11-09T01:05:46.502Z,1011.28
2018-11-09T01:06:12.817Z,1011.26
2018-11-09T01:06:38.990Z,1011.22
2018-11-09T01:07:05.175Z,1011.19
2018-11-09T01:07:31.397Z,1011.19
2018-11-09T01:07:57.584Z,1011.18
2018-11-09T01:08:24.472Z,1011.17
2018-11-09T01:08:50.656Z,1011.13
2018-11-09T01:09:17.035Z,1011.1
2018-11-09T01:09:43.118Z,1011.1
2018-11-09T01:10:09.324Z,1011.06
2018-11-09T01:10:35.512Z,1011.04
2018-11-09T01:11:01.776Z,1011.01
2018-11-09T01:11:27.898Z,1011.06
2018-11-09T01:11:54.078Z,1011.03
2018-11-09T01:12:20.263Z,1011.04
2018-11-09T01:12:46.443Z,1011.03
2018-11-09T01:13:12.614Z,1011.04
2018-11-09T01:13:38.794Z,1011.03
2018-11-09T01:14:04.979Z,1011.05
2018-11-09T01:14:31.433Z,1011.02
2018-11-09T01:14:57.611Z,1011.04
2018-11-09T01:15:23.746Z,1011.01
2018-11-09T01:15:50.764Z,1011.05
2018-11-09T01:16:16.976Z,1010.99
2018-11-09T01:16:43.168Z,1010.99
2018-11-09T01:17:09.346Z,1011.02
2018-11-09T01:17:35.541Z,1011.02
2018-11-09T01:18:01.710Z,1010.98
2018-11-09T01:18:27.918Z,1010.99
2018-11-09T01:18:54.102Z,1010.99
2018-11-09T01:19:20.283Z,1011.02
2018-11-09T01:19:46.465Z,1010.97
2018-11-09T01:20:12.643Z,1010.98
2018-11-09T01:20:38.833Z,1010.99
2018-11-09T01:21:05.018Z,1010.97
2018-11-09T01:21:31.236Z,1010.99
2018-11-09T01:21:57.454Z,1010.96
2018-11-09T01:22:23.630Z,1010.94
2018-11-09T01:22:49.810Z,1010.97
2018-11-09T01:23:16.027Z,1010.97
2018-11-09T01:23:42.209Z,1010.93
2018-11-09T01:24:08.392Z,1010.92
2018-11-09T01:24:34.610Z,1010.91
2018-11-09T01:25:00.784Z,1010.9
2018-11-09T01:25:27.001Z,1010.86
2018-11-09T01:25:53.182Z,1010.86
2018-11-09T01:26:19.402Z,1010.87
2018-11-09T01:26:45.676Z,1010.84
2018-11-09T01:27:11.904Z,1010.83
2018-11-09T01:27:38.079Z,1010.82
2018-11-09T01:28:04.265Z,1010.82
2018-11-09T01:28:30.443Z,1010.81
2018-11-09T01:28:56.653Z,1010.83
2018-11-09T01:29:22.868Z,1010.82
2018-11-09T01:29:49.050Z,1010.81
2018-11-09T01:30:15.263Z,1010.8
2018-11-09T01:30:41.449Z,1010.79
2018-11-09T01:31:07.656Z,1010.82
2018-11-09T01:31:33.840Z,1010.8
2018-11-09T01:32:00.020Z,1010.83
2018-11-09T01:32:26.199Z,1010.77
2018-11-09T01:32:52.388Z,1010.79
2018-11-09T01:33:18.570Z,1010.82
2018-11-09T01:33:44.750Z,1010.79
2018-11-09T01:34:10.923Z,1010.79
2018-11-09T01:34:37.117Z,1010.8
2018-11-09T01:35:03.318Z,1010.76
2018-11-09T01:35:29.569Z,1010.75
2018-11-09T01:35:55.847Z,1010.77
2018-11-09T01:36:22.089Z,1010.77
2018-11-09T01:36:48.264Z,1010.82
2018-11-09T01:37:14.449Z,1010.83
2018-11-09T01:37:40.629Z,1010.8
2018-11-09T01:38:06.841Z,1010.82
2018-11-09T01:38:33.034Z,1010.79
2018-11-09T01:38:59.237Z,1010.84
2018-11-09T01:39:25.415Z,1010.82
2018-11-09T01:39:51.632Z,1010.8
2018-11-09T01:40:17.816Z,1010.84
2018-11-09T01:40:43.997Z,1010.82
2018-11-09T01:41:10.254Z,1010.85
2018-11-09T01:41:36.435Z,1010.76
2018-11-09T01:42:02.620Z,1010.8
2018-11-09T01:42:28.861Z,1010.83
2018-11-09T01:42:55.047Z,1010.82
2018-11-09T01:43:21.228Z,1010.81
2018-11-09T01:43:47.403Z,1010.81
2018-11-09T01:44:13.588Z,1010.82
2018-11-09T01:44:39.770Z,1010.8
2018-11-09T01:45:05.947Z,1010.74
2018-11-09T01:45:32.134Z,1010.75
2018-11-09T01:45:58.355Z,1010.76
2018-11-09T01:46:24.496Z,1010.75
2018-11-09T01:46:50.705Z,1010.76
2018-11-09T01:47:16.888Z,1010.73
2018-11-09T01:47:43.070Z,1010.77
2018-11-09T01:48:09.260Z,1010.77
2018-11-09T01:48:35.440Z,1010.69
2018-11-09T01:49:01.621Z,1010.79
2018-11-09T01:49:27.859Z,1010.75
2018-11-09T01:49:54.035Z,1010.71
2018-11-09T01:50:20.219Z,1010.7
2018-11-09T01:50:46.404Z,1010.73
2018-11-09T01:51:12.587Z,1010.68
2018-11-09T01:51:38.795Z,1010.67
2018-11-09T01:52:04.978Z,1010.7
2018-11-09T01:52:31.188Z,1010.68
2018-11-09T01:52:57.352Z,1010.67
2018-11-09T01:53:23.527Z,1010.72
2018-11-09T01:53:49.706Z,1010.7
2018-11-09T01:54:15.889Z,1010.71
2018-11-09T01:54:42.106Z,1010.71
2018-11-09T01:55:08.275Z,1010.68
2018-11-09T01:55:34.464Z,1010.65
2018-11-09T01:56:00.744Z,1010.66
2018-11-09T01:56:26.923Z,1010.67
2018-11-09T01:56:53.108Z,1010.67
2018-11-09T01:57:19.321Z,1010.67
2018-11-09T01:57:45.562Z,1010.67
2018-11-09T01:58:11.813Z,1010.69
2018-11-09T01:58:38.068Z,1010.66
2018-11-09T01:59:04.242Z,1010.65
2018-11-09T01:59:30.429Z,1010.61
2018-11-09T01:59:56.609Z,1010.63
2018-11-09T02:00:22.819Z,1010.64
2018-11-09T02:00:48.999Z,1010.63
2018-11-09T02:01:15.214Z,1010.6
2018-11-09T02:01:41.397Z,1010.64
2018-11-09T02:02:07.582Z,1010.63
2018-11-09T02:02:33.766Z,1010.62
2018-11-09T02:02:59.947Z,1010.66
2018-11-09T02:03:26.166Z,1010.64
2018-11-09T02:03:52.347Z,1010.63
2018-11-09T02:04:18.561Z,1010.66
2018-11-09T02:04:44.741Z,1010.6
2018-11-09T02:05:10.927Z,1010.59
2018-11-09T02:05:37.149Z,1010.57
2018-11-09T02:06:03.325Z,1010.55
2018-11-09T02:06:29.514Z,1010.56
2018-11-09T02:06:55.693Z,1010.56
2018-11-09T02:07:21.910Z,1010.55
2018-11-09T02:07:48.120Z,1010.51
2018-11-09T02:08:14.298Z,1010.56
2018-11-09T02:08:40.512Z,1010.57
2018-11-09T02:09:06.720Z,1010.67
2018-11-09T02:09:32.906Z,1010.62
2018-11-09T02:09:59.129Z,1010.64
2018-11-09T02:10:25.323Z,1010.64
2018-11-09T02:10:51.501Z,1010.64
2018-11-09T02:11:17.746Z,1010.65
2018-11-09T02:11:43.928Z,1010.65
2018-11-09T02:12:10.105Z,1010.67
2018-11-09T02:12:36.291Z,1010.63
2018-11-09T02:13:02.472Z,1010.6
2018-11-09T02:13:28.650Z,1010.59
2018-11-09T02:13:54.838Z,1010.6
2018-11-09T02:14:21.018Z,1010.61
2018-11-09T02:14:47.230Z,1010.58
2018-11-09T02:15:13.448Z,1010.58
2018-11-09T02:15:39.638Z,1010.57
2018-11-09T02:16:05.858Z,1010.59
2018-11-09T02:16:32.096Z,1010.57
2018-11-09T02:16:58.276Z,1010.6
2018-11-09T02:17:24.461Z,1010.57
2018-11-09T02:17:50.643Z,1010.54
2018-11-09T02:18:16.832Z,1010.57
2018-11-09T02:18:43.064Z,1010.57
2018-11-09T02:19:09.203Z,1010.53
2018-11-09T02:19:35.390Z,1010.55
2018-11-09T02:20:01.570Z,1010.52
2018-11-09T02:20:27.821Z,1010.54
2018-11-09T02:20:54.001Z,1010.52
2018-11-09T02:21:20.189Z,1010.54
2018-11-09T02:21:46.369Z,1010.54
2018-11-09T02:22:12.552Z,1010.52
2018-11-09T02:22:38.797Z,1010.54
2018-11-09T02:23:04.979Z,1010.54
2018-11-09T02:23:31.161Z,1010.53
2018-11-09T02:23:57.379Z,1010.56
2018-11-09T02:24:23.556Z,1010.53
2018-11-09T02:24:49.770Z,1010.57
2018-11-09T02:25:16.055Z,1010.55
2018-11-09T02:25:42.238Z,1010.56
2018-11-09T02:26:08.416Z,1010.54
2018-11-09T02:26:34.638Z,1010.51
2018-11-09T02:27:00.816Z,1010.57
2018-11-09T02:27:27.005Z,1010.54
2018-11-09T02:27:53.184Z,1010.56
2018-11-09T02:28:19.368Z,1010.58
2018-11-09T02:28:45.578Z,1010.54
2018-11-09T02:29:11.759Z,1010.53
2018-11-09T02:29:37.973Z,1010.5
2018-11-09T02:30:04.151Z,1010.48
2018-11-09T02:30:30.366Z,1010.51
2018-11-09T02:30:56.600Z,1010.51
2018-11-09T02:31:22.785Z,1010.53
2018-11-09T02:31:49.025Z,1010.47
2018-11-09T02:32:15.213Z,1010.5
2018-11-09T02:32:41.424Z,1010.49
2018-11-09T02:33:07.666Z,1010.51
2018-11-09T02:33:33.852Z,1010.5
2018-11-09T02:34:00.036Z,1010.46
2018-11-09T02:34:26.286Z,1010.47
2018-11-09T02:34:52.476Z,1010.42
2018-11-09T02:35:18.692Z,1010.44
2018-11-09T02:35:44.939Z,1010.36
2018-11-09T02:36:11.118Z,1010.42
2018-11-09T02:36:37.301Z,1010.41
2018-11-09T02:37:03.509Z,1010.41
2018-11-09T02:37:29.693Z,1010.42
2018-11-09T02:37:55.874Z,1010.38
2018-11-09T02:38:22.132Z,1010.36
2018-11-09T02:38:48.343Z,1010.39
2018-11-09T02:39:14.521Z,1010.37
2018-11-09T02:39:40.703Z,1010.38
2018-11-09T02:40:06.958Z,1010.37
2018-11-09T02:40:33.134Z,1010.37
2018-11-09T02:40:59.318Z,1010.43
2018-11-09T02:41:25.495Z,1010.42
2018-11-09T02:41:51.710Z,1010.42
2018-11-09T02:42:17.894Z,1010.37
2018-11-09T02:42:44.086Z,1010.43
2018-11-09T02:43:10.269Z,1010.42
2018-11-09T02:43:36.450Z,1010.45
2018-11-09T02:44:02.638Z,1010.43
2018-11-09T02:44:28.817Z,1010.43
2018-11-09T02:44:55.002Z,1010.47
2018-11-09T02:45:21.211Z,1010.44
2018-11-09T02:45:47.392Z,1010.47
2018-11-09T02:46:13.574Z,1010.46
2018-11-09T02:46:39.782Z,1010.48
2018-11-09T02:47:05.992Z,1010.49
2018-11-09T02:47:32.321Z,1010.46
2018-11-09T02:47:58.370Z,1010.41
2018-11-09T02:48:24.559Z,1010.43
2018-11-09T02:48:50.769Z,1010.4
2018-11-09T02:49:16.956Z,1010.42
2018-11-09T02:49:43.133Z,1010.39
2018-11-09T02:50:09.312Z,1010.38
2018-11-09T02:50:35.525Z,1010.38
2018-11-09T02:51:01.711Z,1010.39
2018-11-09T02:51:27.924Z,1010.36
2018-11-09T02:51:54.195Z,1010.39
2018-11-09T02:52:20.358Z,1010.37
2018-11-09T02:52:46.568Z,1010.33
2018-11-09T02:53:12.781Z,1010.37
2018-11-09T02:53:38.989Z,1010.33
2018-11-09T02:54:05.173Z,1010.31
2018-11-09T02:54:31.415Z,1010.31
2018-11-09T02:54:57.599Z,1010.32
2018-11-09T02:55:23.777Z,1010.34
2018-11-09T02:55:49.965Z,1010.32
2018-11-09T02:56:16.148Z,1010.33
2018-11-09T02:56:42.367Z,1010.27
2018-11-09T02:57:08.541Z,1010.25
2018-11-09T02:57:34.724Z,1010.25
2018-11-09T02:58:00.900Z,1010.27
2018-11-09T02:58:27.087Z,1010.32
2018-11-09T02:58:53.265Z,1010.32
2018-11-09T02:59:19.481Z,1010.29
2018-11-09T02:59:45.666Z,1010.27
2018-11-09T03:00:11.940Z,1010.29
2018-11-09T03:00:38.093Z,1010.28
2018-11-09T03:01:04.314Z,1010.28
2018-11-09T03:01:30.502Z,1010.32
2018-11-09T03:01:56.684Z,1010.26
2018-11-09T03:02:22.871Z,1010.26
2018-11-09T03:02:49.082Z,1010.28
2018-11-09T03:03:15.951Z,1010.29
2018-11-09T03:03:42.931Z,1010.28
2018-11-09T03:04:09.496Z,1010.27
2018-11-09T03:04:35.648Z,1010.31
2018-11-09T03:05:01.825Z,1010.27
2018-11-09T03:05:28.047Z,1010.3
2018-11-09T03:05:54.281Z,1010.28
2018-11-09T03:06:20.463Z,1010.33
2018-11-09T03:06:46.680Z,1010.28
2018-11-09T03:07:12.861Z,1010.29
2018-11-09T03:07:39.079Z,1010.28
2018-11-09T03:08:05.287Z,1010.27
2018-11-09T03:08:31.468Z,1010.23
2018-11-09T03:08:57.646Z,1010.23
2018-11-09T03:09:23.835Z,1010.26
2018-11-09T03:09:50.015Z,1010.24
2018-11-09T03:10:16.230Z,1010.24
2018-11-09T03:10:42.409Z,1010.26
2018-11-09T03:11:08.622Z,1010.25
2018-11-09T03:11:34.804Z,1010.28
2018-11-09T03:12:00.989Z,1010.28
2018-11-09T03:12:27.164Z,1010.26
2018-11-09T03:12:53.351Z,1010.25
2018-11-09T03:13:19.560Z,1010.22
2018-11-09T03:13:45.746Z,1010.24
2018-11-09T03:14:11.925Z,1010.25
2018-11-09T03:14:38.120Z,1010.22
2018-11-09T03:15:04.283Z,1010.19
2018-11-09T03:15:30.463Z,1010.19
2018-11-09T03:15:56.647Z,1010.2
2018-11-09T03:16:22.825Z,1010.21
2018-11-09T03:16:49.010Z,1010.15
2018-11-09T03:17:15.189Z,1010.16
2018-11-09T03:17:41.375Z,1010.17
2018-11-09T03:18:07.554Z,1010.17
2018-11-09T03:18:33.740Z,1010.11
2018-11-09T03:18:59.952Z,1010.13
2018-11-09T03:19:26.134Z,1010.12
2018-11-09T03:19:52.350Z,1010.1
2018-11-09T03:20:18.535Z,1010.07
2018-11-09T03:20:44.719Z,1010.07
2018-11-09T03:21:10.890Z,1010.08
2018-11-09T03:21:37.077Z,1010.08
2018-11-09T03:22:03.294Z,1010.06
2018-11-09T03:22:29.469Z,1010.04
2018-11-09T03:22:55.650Z,1010.09
2018-11-09T03:23:21.868Z,1010.06
2018-11-09T03:23:48.086Z,1010.02
2018-11-09T03:24:14.272Z,1010.04
2018-11-09T03:24:40.452Z,1009.99
2018-11-09T03:25:06.632Z,1010.05
2018-11-09T03:25:32.843Z,1010
2018-11-09T03:25:59.061Z,1010.01
2018-11-09T03:26:25.244Z,1009.98
2018-11-09T03:26:51.490Z,1010
2018-11-09T03:27:17.670Z,1010
2018-11-09T03:27:43.852Z,1009.99
2018-11-09T03:28:10.073Z,1009.98
2018-11-09T03:28:36.259Z,1009.96
2018-11-09T03:29:02.438Z,1009.97
2018-11-09T03:29:28.618Z,1009.97
2018-11-09T03:29:54.800Z,1009.92
2018-11-09T03:30:21.086Z,1009.96
2018-11-09T03:30:47.317Z,1009.96
2018-11-09T03:31:13.440Z,1009.94
2018-11-09T03:31:39.658Z,1009.93
2018-11-09T03:32:05.875Z,1009.92
2018-11-09T03:32:32.123Z,1009.93
2018-11-09T03:32:58.340Z,1009.91
2018-11-09T03:33:24.524Z,1009.92
2018-11-09T03:33:50.705Z,1009.96
2018-11-09T03:34:16.914Z,1009.92
2018-11-09T03:34:43.096Z,1009.91
2018-11-09T03:35:09.280Z,1009.94
2018-11-09T03:35:35.457Z,1009.94
2018-11-09T03:36:01.641Z,1009.92
2018-11-09T03:36:27.855Z,1009.89
2018-11-09T03:36:54.074Z,1009.91
2018-11-09T03:37:20.258Z,1009.9
2018-11-09T03:37:46.442Z,1009.89
2018-11-09T03:38:12.625Z,1009.87
2018-11-09T03:38:38.874Z,1009.89
2018-11-09T03:39:05.049Z,1009.88
2018-11-09T03:39:31.234Z,1009.87
2018-11-09T03:39:57.419Z,1009.86
2018-11-09T03:40:23.597Z,1009.83
2018-11-09T03:40:49.817Z,1009.83
2018-11-09T03:41:15.991Z,1009.79
2018-11-09T03:41:42.175Z,1009.8
2018-11-09T03:42:08.354Z,1009.79
2018-11-09T03:42:34.530Z,1009.83
2018-11-09T03:43:00.719Z,1009.78
2018-11-09T03:43:26.898Z,1009.78
2018-11-09T03:43:53.079Z,1009.81
2018-11-09T03:44:19.263Z,1009.78
2018-11-09T03:44:45.447Z,1009.77
2018-11-09T03:45:11.631Z,1009.76
2018-11-09T03:45:37.819Z,1009.71
2018-11-09T03:46:04.031Z,1009.75
2018-11-09T03:46:30.215Z,1009.69
2018-11-09T03:46:56.387Z,1009.66
2018-11-09T03:47:22.571Z,1009.64
2018-11-09T03:47:48.756Z,1009.66
2018-11-09T03:48:14.973Z,1009.67
2018-11-09T03:48:41.155Z,1009.63
2018-11-09T03:49:07.335Z,1009.62
2018-11-09T03:49:33.516Z,1009.64
2018-11-09T03:49:59.697Z,1009.62
2018-11-09T03:50:25.873Z,1009.56
2018-11-09T03:50:52.064Z,1009.56
2018-11-09T03:51:18.276Z,1009.54
2018-11-09T03:51:44.460Z,1009.61
2018-11-09T03:52:10.641Z,1009.56
2018-11-09T03:52:36.805Z,1009.57
2018-11-09T03:53:02.979Z,1009.52
2018-11-09T03:53:29.176Z,1009.56
2018-11-09T03:53:55.354Z,1009.56
2018-11-09T03:54:21.485Z,1009.53
2018-11-09T03:54:47.619Z,1009.54
2018-11-09T03:55:13.756Z,1009.54
2018-11-09T03:55:39.898Z,1009.57
2018-11-09T03:56:06.029Z,1009.56
2018-11-09T03:56:32.187Z,1009.52
2018-11-09T03:56:58.310Z,1009.55
2018-11-09T03:57:24.449Z,1009.54
2018-11-09T03:57:50.590Z,1009.54
2018-11-09T03:58:16.710Z,1009.57
2018-11-09T03:58:42.838Z,1009.52
2018-11-09T03:59:08.961Z,1009.53
2018-11-09T03:59:35.095Z,1009.55
2018-11-09T04:00:01.226Z,1009.52
2018-11-09T04:00:27.376Z,1009.55
2018-11-09T04:00:53.503Z,1009.53
2018-11-09T04:01:19.688Z,1009.57
2018-11-09T04:01:45.824Z,1009.57
2018-11-09T04:02:11.956Z,1009.56
2018-11-09T04:02:38.089Z,1009.53
2018-11-09T04:03:04.218Z,1009.54
2018-11-09T04:03:30.394Z,1009.56
2018-11-09T04:03:56.486Z,1009.56
2018-11-09T04:04:22.645Z,1009.49
2018-11-09T04:04:48.812Z,1009.52
2018-11-09T04:05:14.924Z,1009.56
2018-11-09T04:05:41.082Z,1009.52
2018-11-09T04:06:07.221Z,1009.53
2018-11-09T04:06:33.349Z,1009.51
2018-11-09T04:06:59.490Z,1009.49
2018-11-09T04:07:25.614Z,1009.5
2018-11-09T04:07:51.758Z,1009.53
2018-11-09T04:08:17.885Z,1009.51
2018-11-09T04:08:44.020Z,1009.52
2018-11-09T04:09:10.169Z,1009.49
2018-11-09T04:09:36.326Z,1009.51
2018-11-09T04:10:02.461Z,1009.49
2018-11-09T04:10:28.613Z,1009.47
2018-11-09T04:10:54.739Z,1009.5
2018-11-09T04:11:20.893Z,1009.5
2018-11-09T04:11:47.031Z,1009.52
2018-11-09T04:12:13.185Z,1009.49
2018-11-09T04:12:39.322Z,1009.52
2018-11-09T04:13:05.451Z,1009.49
2018-11-09T04:13:31.585Z,1009.55
2018-11-09T04:13:57.720Z,1009.53
2018-11-09T04:14:23.843Z,1009.52
2018-11-09T04:14:49.964Z,1009.52
2018-11-09T04:15:16.096Z,1009.53
2018-11-09T04:15:42.232Z,1009.5
2018-11-09T04:16:08.386Z,1009.52
2018-11-09T04:16:34.518Z,1009.52
2018-11-09T04:17:00.691Z,1009.47
2018-11-09T04:17:26.822Z,1009.47
2018-11-09T04:17:52.950Z,1009.48
2018-11-09T04:18:19.086Z,1009.46
2018-11-09T04:18:45.245Z,1009.39
2018-11-09T04:19:11.374Z,1009.4
2018-11-09T04:19:37.505Z,1009.44
2018-11-09T04:20:03.644Z,1009.39
2018-11-09T04:20:29.772Z,1009.42
2018-11-09T04:20:55.958Z,1009.4
2018-11-09T04:21:22.094Z,1009.41
2018-11-09T04:21:48.222Z,1009.41
2018-11-09T04:22:14.364Z,1009.37
2018-11-09T04:22:40.492Z,1009.4
2018-11-09T04:23:06.630Z,1009.32
2018-11-09T04:23:32.763Z,1009.36
2018-11-09T04:23:58.930Z,1009.39
2018-11-09T04:24:25.057Z,1009.36
2018-11-09T04:24:51.192Z,1009.35
2018-11-09T04:25:17.399Z,1009.38
2018-11-09T04:25:43.527Z,1009.38
2018-11-09T04:26:09.667Z,1009.39
2018-11-09T04:26:35.800Z,1009.38
2018-11-09T04:27:01.932Z,1009.36
2018-11-09T04:27:28.064Z,1009.35
2018-11-09T04:27:54.201Z,1009.38
2018-11-09T04:28:20.327Z,1009.34
2018-11-09T04:28:46.509Z,1009.37
2018-11-09T04:29:12.652Z,1009.32
2018-11-09T04:29:38.730Z,1009.33
2018-11-09T04:30:04.865Z,1009.33
2018-11-09T04:30:30.995Z,1009.3
2018-11-09T04:30:57.125Z,1009.35
2018-11-09T04:31:23.258Z,1009.33
2018-11-09T04:31:49.417Z,1009.36
2018-11-09T04:32:15.593Z,1009.29
2018-11-09T04:32:41.725Z,1009.31
2018-11-09T04:33:07.857Z,1009.31
2018-11-09T04:33:33.989Z,1009.32
2018-11-09T04:34:00.117Z,1009.34
2018-11-09T04:34:26.299Z,1009.32
2018-11-09T04:34:52.432Z,1009.36
2018-11-09T04:35:18.590Z,1009.36
2018-11-09T04:35:44.726Z,1009.36
2018-11-09T04:36:10.857Z,1009.33
2018-11-09T04:36:36.987Z,1009.33
2018-11-09T04:37:03.144Z,1009.33
2018-11-09T04:37:29.277Z,1009.3
2018-11-09T04:37:55.428Z,1009.34
2018-11-09T04:38:21.558Z,1009.31
2018-11-09T04:38:47.697Z,1009.27
2018-11-09T04:39:13.823Z,1009.33
2018-11-09T04:39:39.978Z,1009.3
2018-11-09T04:40:06.138Z,1009.3
2018-11-09T04:40:32.272Z,1009.25
2018-11-09T04:40:58.402Z,1009.26
2018-11-09T04:41:24.537Z,1009.27
2018-11-09T04:41:50.674Z,1009.21
2018-11-09T04:42:16.810Z,1009.27
2018-11-09T04:42:42.946Z,1009.26
2018-11-09T04:43:09.079Z,1009.25
2018-11-09T04:43:35.212Z,1009.25
2018-11-09T04:44:01.348Z,1009.23
2018-11-09T04:44:27.476Z,1009.24
2018-11-09T04:44:53.615Z,1009.21
2018-11-09T04:45:19.772Z,1009.2
2018-11-09T04:45:45.968Z,1009.22
2018-11-09T04:46:12.048Z,1009.21
2018-11-09T04:46:38.208Z,1009.21
2018-11-09T04:47:04.338Z,1009.17
2018-11-09T04:47:30.491Z,1009.16
2018-11-09T04:47:56.623Z,1009.18
2018-11-09T04:48:22.788Z,1009.15
2018-11-09T04:48:48.970Z,1009.23
2018-11-09T04:49:15.102Z,1009.23
2018-11-09T04:49:41.261Z,1009.22
2018-11-09T04:50:07.389Z,1009.2
2018-11-09T04:50:33.518Z,1009.18
2018-11-09T04:50:59.652Z,1009.21
2018-11-09T04:51:25.825Z,1009.17
2018-11-09T04:51:51.953Z,1009.18
2018-11-09T04:52:18.091Z,1009.19
2018-11-09T04:52:44.218Z,1009.15
2018-11-09T04:53:10.350Z,1009.16
2018-11-09T04:53:36.489Z,1009.15
2018-11-09T04:54:02.623Z,1009.1
2018-11-09T04:54:28.801Z,1009.14
2018-11-09T04:54:54.950Z,1009.11
2018-11-09T04:55:21.075Z,1009.06
2018-11-09T04:55:47.205Z,1009.12
2018-11-09T04:56:13.345Z,1009.11
2018-11-09T04:56:39.500Z,1009.07
2018-11-09T04:57:05.627Z,1009.09
2018-11-09T04:57:31.779Z,1009.03
2018-11-09T04:57:57.941Z,1009
2018-11-09T04:58:24.079Z,1009.04
2018-11-09T04:58:50.207Z,1008.98
2018-11-09T04:59:16.336Z,1008.95
2018-11-09T04:59:42.471Z,1008.95
2018-11-09T05:00:08.607Z,1008.95
2018-11-09T05:00:34.726Z,1008.92
2018-11-09T05:01:00.854Z,1008.94
2018-11-09T05:01:26.993Z,1008.9
2018-11-09T05:01:53.121Z,1008.93
2018-11-09T05:02:19.314Z,1008.91
2018-11-09T05:02:45.406Z,1008.91
2018-11-09T05:03:11.568Z,1008.93
2018-11-09T05:03:37.701Z,1008.92
2018-11-09T05:04:03.835Z,1008.91
2018-11-09T05:04:30.015Z,1008.91
2018-11-09T05:04:56.172Z,1008.91
2018-11-09T05:05:22.309Z,1008.91
2018-11-09T05:05:48.438Z,1008.91
2018-11-09T05:06:14.576Z,1008.9
2018-11-09T05:06:40.729Z,1008.91
2018-11-09T05:07:06.857Z,1008.88
2018-11-09T05:07:33.019Z,1008.9
2018-11-09T05:07:59.172Z,1008.89
2018-11-09T05:08:25.310Z,1008.91
2018-11-09T05:08:51.439Z,1008.9
2018-11-09T05:09:17.579Z,1008.93
2018-11-09T05:09:43.708Z,1008.96
2018-11-09T05:10:09.844Z,1008.98
2018-11-09T05:10:35.987Z,1008.97
2018-11-09T05:11:02.134Z,1008.97
2018-11-09T05:11:28.283Z,1008.95
2018-11-09T05:11:54.407Z,1008.9
2018-11-09T05:12:20.533Z,1008.92
2018-11-09T05:12:46.665Z,1008.95
2018-11-09T05:13:12.796Z,1008.93
2018-11-09T05:13:38.945Z,1008.93
2018-11-09T05:14:05.083Z,1008.92
2018-11-09T05:14:31.233Z,1008.89
2018-11-09T05:14:57.364Z,1008.87
2018-11-09T05:15:23.531Z,1008.88
2018-11-09T05:15:49.663Z,1008.9
2018-11-09T05:16:15.789Z,1008.92
2018-11-09T05:16:41.919Z,1008.89
2018-11-09T05:17:08.143Z,1008.87
2018-11-09T05:17:34.302Z,1008.9